Time;durP1;ratioP1;P1;durP2;ratioP2;P2;SDS_P1;SDS_P2;PMS_P1;PMS_P2;Temp;Humidity;BMP_temperature;BMP_pressure;BME280_temperature;BME280_humidity;BME280_pressure;Samples;Min_cycle;Max_cycle;Signal;HPM_P1;HPM_P2
2022/04/09 00:00:00;;;;;;;13.48;2.03;;;5.40;99.90;;;;;;5053974;28;20431;-86
2022/04/09 00:02:25;;;;;;;12.52;1.88;;;5.40;99.90;;;;;;5052894;28;20055;-86
2022/04/09 00:04:51;;;;;;;12.75;2.78;;;5.20;99.90;;;;;;5053426;28;20021;-86
2022/04/09 00:07:16;;;;;;;15.88;2.35;;;5.20;99.90;;;;;;5053365;28;20493;-86
2022/04/09 00:09:42;;;;;;;16.30;2.13;;;5.00;99.90;;;;;;5053634;28;20044;-86
2022/04/09 00:12:08;;;;;;;9.52;1.85;;;4.90;99.90;;;;;;5057684;28;20080;-86
2022/04/09 00:14:34;;;;;;;15.25;2.33;;;4.80;99.90;;;;;;5055806;28;20048;-86
2022/04/09 00:17:03;;;;;;;19.02;3.03;;;4.80;99.90;;;;;;5053338;28;20036;-86
2022/04/09 00:19:29;;;;;;;18.88;3.08;;;4.80;99.90;;;;;;5053294;28;20372;-86
2022/04/09 00:21:54;;;;;;;15.85;2.13;;;4.90;99.90;;;;;;5053892;28;20104;-86
2022/04/09 00:24:20;;;;;;;15.90;2.97;;;5.00;99.90;;;;;;5053220;28;20531;-85
2022/04/09 00:26:45;;;;;;;23.20;4.47;;;5.00;99.90;;;;;;5057197;28;20021;-85
2022/04/09 00:29:11;;;;;;;8.98;2.03;;;5.00;99.90;;;;;;5057344;28;20033;-86
2022/04/09 00:31:36;;;;;;;12.15;2.10;;;5.00;99.90;;;;;;5052557;28;20021;-87
2022/04/09 00:34:04;;;;;;;11.32;1.90;;;5.10;99.90;;;;;;5054092;28;20033;-87
2022/04/09 00:36:29;;;;;;;14.23;1.92;;;5.10;99.90;;;;;;5058147;28;20041;-87
2022/04/09 00:38:55;;;;;;;10.40;2.25;;;5.10;99.90;;;;;;5056981;28;20452;-87
2022/04/09 00:41:20;;;;;;;9.60;1.90;;;5.20;99.90;;;;;;5052793;28;20021;-87
2022/04/09 00:43:46;;;;;;;9.10;1.70;;;5.20;99.90;;;;;;5052822;28;20052;-86
2022/04/09 00:46:13;;;;;;;9.15;2.00;;;5.20;99.90;;;;;;5052307;28;20025;-85
2022/04/09 00:48:40;;;;;;;10.73;1.98;;;5.30;99.90;;;;;;5052744;28;20107;-85
2022/04/09 00:51:05;;;;;;;12.98;1.85;;;5.30;99.90;;;;;;5052100;28;20021;-85
2022/04/09 00:53:34;;;;;;;8.25;1.50;;;5.30;99.90;;;;;;5052997;28;20028;-85
2022/04/09 00:56:13;;;;;;;15.20;1.48;;;5.30;99.90;;;;;;5052694;28;20496;-85
2022/04/09 00:58:47;;;;;;;16.20;1.60;;;5.20;99.90;;;;;;5052263;28;20111;-85
2022/04/09 01:01:14;;;;;;;9.20;1.85;;;5.20;99.90;;;;;;5052273;28;20104;-86
2022/04/09 01:03:40;;;;;;;4.55;1.80;;;5.10;99.90;;;;;;5052517;28;20116;-85
2022/04/09 01:06:07;;;;;;;12.35;2.50;;;5.10;99.90;;;;;;5051815;28;20389;-86
2022/04/09 01:08:33;;;;;;;9.75;1.80;;;5.00;99.90;;;;;;5052479;28;20056;-86
2022/04/09 01:10:59;;;;;;;23.90;4.63;;;5.00;99.90;;;;;;5052615;28;20021;-86
2022/04/09 01:13:24;;;;;;;6.85;1.60;;;5.00;99.90;;;;;;5052785;28;20036;-87
2022/04/09 01:15:50;;;;;;;23.92;2.20;;;5.00;99.90;;;;;;5055684;28;20029;-86
2022/04/09 01:18:16;;;;;;;9.82;3.15;;;5.10;99.90;;;;;;5058753;28;20029;-86
2022/04/09 01:20:41;;;;;;;16.00;2.42;;;5.10;99.90;;;;;;5073073;28;20025;-87
2022/04/09 01:23:07;;;;;;;13.52;2.20;;;5.10;99.90;;;;;;5060455;28;20400;-85
2022/04/09 01:25:33;;;;;;;24.38;3.88;;;5.10;99.90;;;;;;5053010;28;20021;-85
2022/04/09 01:27:59;;;;;;;17.55;2.40;;;5.20;99.90;;;;;;5053678;28;20036;-86
2022/04/09 01:30:24;;;;;;;17.80;2.10;;;5.10;99.90;;;;;;5055653;28;20025;-86
2022/04/09 01:32:50;;;;;;;13.65;1.98;;;5.20;99.90;;;;;;5056595;28;20029;-86
2022/04/09 01:35:15;;;;;;;12.95;2.42;;;5.10;99.90;;;;;;5055126;28;20025;-86
2022/04/09 01:37:42;;;;;;;16.40;2.45;;;5.20;99.90;;;;;;5056093;28;20032;-85
2022/04/09 01:40:08;;;;;;;9.68;2.70;;;5.20;99.90;;;;;;5055237;28;20033;-87
2022/04/09 01:42:36;;;;;;;11.27;1.92;;;5.20;99.90;;;;;;5055959;28;20025;-85
2022/04/09 01:45:02;;;;;;;9.45;1.00;;;5.30;99.90;;;;;;5056240;28;20028;-86
2022/04/09 01:47:28;;;;;;;3.33;0.88;;;5.40;99.90;;;;;;5055784;28;20419;-84
2022/04/09 01:49:54;;;;;;;3.13;0.77;;;5.20;99.90;;;;;;5063505;28;20040;-84
2022/04/09 01:52:19;;;;;;;12.32;1.60;;;5.10;99.90;;;;;;5066572;28;20025;-84
2022/04/09 01:54:45;;;;;;;4.65;1.58;;;5.10;99.90;;;;;;5055689;28;20059;-85
2022/04/09 01:57:10;;;;;;;4.55;1.20;;;5.00;99.90;;;;;;5055419;28;20025;-85
2022/04/09 01:59:36;;;;;;;12.00;3.25;;;5.00;99.90;;;;;;5057697;28;20116;-83
2022/04/09 02:02:02;;;;;;;9.02;1.88;;;4.90;99.90;;;;;;5068206;28;20055;-85
2022/04/09 02:04:27;;;;;;;4.90;1.23;;;4.90;99.90;;;;;;5056504;28;20033;-85
2022/04/09 02:06:54;;;;;;;16.25;1.67;;;4.90;99.90;;;;;;5064347;28;20051;-84
2022/04/09 02:09:19;;;;;;;8.50;1.67;;;4.90;99.90;;;;;;5060356;28;20394;-84
2022/04/09 02:11:45;;;;;;;11.65;1.67;;;4.90;99.90;;;;;;5055428;28;20021;-85
2022/04/09 02:14:11;;;;;;;14.57;2.70;;;4.90;99.90;;;;;;5054704;28;20025;-85
2022/04/09 02:16:38;;;;;;;17.90;2.40;;;4.90;99.90;;;;;;5054492;28;20028;-85
2022/04/09 02:19:04;;;;;;;9.98;1.50;;;4.80;99.90;;;;;;5054984;28;20040;-84
2022/04/09 02:21:30;;;;;;;12.15;1.90;;;4.90;99.90;;;;;;5055207;28;20098;-85
2022/04/09 02:23:56;;;;;;;11.30;1.90;;;4.90;99.90;;;;;;5056011;28;20070;-86
2022/04/09 02:26:21;;;;;;;7.90;1.42;;;4.90;99.90;;;;;;5054848;28;20025;-85
2022/04/09 02:28:49;;;;;;;7.10;1.63;;;5.00;99.90;;;;;;5054914;28;20043;-87
2022/04/09 02:31:17;;;;;;;13.25;1.90;;;4.90;99.90;;;;;;5054581;28;20032;-85
2022/04/09 02:33:43;;;;;;;6.97;1.17;;;4.90;99.90;;;;;;5055182;28;20032;-85
2022/04/09 02:36:12;;;;;;;12.30;1.52;;;4.80;99.90;;;;;;5054858;28;20017;-85
2022/04/09 02:38:38;;;;;;;13.32;2.13;;;4.80;99.90;;;;;;5053658;28;20065;-84
2022/04/09 02:41:04;;;;;;;14.75;1.77;;;4.90;99.90;;;;;;5054871;28;20541;-86
2022/04/09 02:43:29;;;;;;;12.82;1.60;;;4.80;99.90;;;;;;5053874;28;20029;-87
2022/04/09 02:45:55;;;;;;;7.70;1.65;;;4.80;99.90;;;;;;5055276;28;20028;-87
2022/04/09 02:48:21;;;;;;;13.35;2.80;;;4.90;99.90;;;;;;5062636;28;20092;-86
2022/04/09 02:50:48;;;;;;;9.02;1.48;;;4.90;99.90;;;;;;5058200;28;20412;-86
2022/04/09 02:53:13;;;;;;;8.65;1.48;;;4.90;99.90;;;;;;5075190;28;20048;-86
2022/04/09 02:55:39;;;;;;;12.50;1.48;;;4.90;99.90;;;;;;5066955;28;20025;-86
2022/04/09 02:58:05;;;;;;;8.15;1.60;;;4.90;99.90;;;;;;5054136;28;20025;-86
2022/04/09 03:00:31;;;;;;;18.40;1.05;;;4.90;99.90;;;;;;5054580;28;20496;-87
2022/04/09 03:02:56;;;;;;;8.85;1.33;;;4.90;99.90;;;;;;5054489;28;20041;-87
2022/04/09 03:05:24;;;;;;;12.68;1.88;;;5.00;99.90;;;;;;5054085;28;20027;-87
2022/04/09 03:07:50;;;;;;;13.25;2.05;;;4.90;99.90;;;;;;5054364;28;20499;-87
2022/04/09 03:10:16;;;;;;;17.58;2.42;;;4.90;99.90;;;;;;5054005;28;20037;-87
2022/04/09 03:12:46;;;;;;;13.20;3.20;;;4.90;99.90;;;;;;5054244;28;20052;-87
2022/04/09 03:15:13;;;;;;;10.73;1.70;;;4.80;99.90;;;;;;5054159;28;20025;-87
2022/04/09 03:17:39;;;;;;;5.65;2.58;;;4.80;99.90;;;;;;5054416;28;20025;-87
2022/04/09 03:20:06;;;;;;;13.63;2.00;;;4.70;99.90;;;;;;5053686;28;20384;-87
2022/04/09 03:22:32;;;;;;;9.07;1.15;;;4.70;99.90;;;;;;5054473;28;20104;-87
2022/04/09 03:25:02;;;;;;;15.73;2.78;;;4.70;99.90;;;;;;5055820;28;20071;-87
2022/04/09 03:27:29;;;;;;;17.73;3.65;;;4.70;99.90;;;;;;5056049;28;20028;-87
2022/04/09 03:29:54;;;;;;;9.82;1.50;;;4.70;99.90;;;;;;5055992;28;20124;-87
2022/04/09 03:32:21;;;;;;;7.35;1.45;;;4.70;99.90;;;;;;5053659;28;20060;-88
2022/04/09 03:34:47;;;;;;;13.40;1.77;;;4.80;99.90;;;;;;5053448;28;20480;-87
2022/04/09 03:37:13;;;;;;;10.43;1.52;;;4.60;99.90;;;;;;5053583;28;20017;-87
2022/04/09 03:39:41;;;;;;;9.98;1.67;;;4.60;99.90;;;;;;5053401;28;20052;-87
2022/04/09 03:42:07;;;;;;;16.25;2.42;;;4.60;99.90;;;;;;5053739;28;20025;-88
2022/04/09 03:44:36;;;;;;;12.10;2.58;;;4.60;99.90;;;;;;5053435;28;20021;-87
2022/04/09 03:47:03;;;;;;;9.32;1.73;;;4.60;99.90;;;;;;5053296;28;20068;-87
2022/04/09 03:49:29;;;;;;;16.08;3.53;;;4.50;99.90;;;;;;5052746;28;20048;-87
2022/04/09 03:51:55;;;;;;;5.60;1.70;;;4.50;99.90;;;;;;5053106;28;20059;-87
2022/04/09 03:54:21;;;;;;;19.52;2.33;;;4.50;99.90;;;;;;5053050;28;20025;-86
2022/04/09 03:56:46;;;;;;;8.07;1.58;;;4.50;99.90;;;;;;5053573;28;20079;-86
2022/04/09 03:59:16;;;;;;;13.38;2.17;;;4.50;99.90;;;;;;5053475;28;20471;-87
2022/04/09 04:01:44;;;;;;;9.60;2.20;;;4.40;99.90;;;;;;5052644;28;20025;-87
2022/04/09 04:04:10;;;;;;;10.55;1.98;;;4.40;99.90;;;;;;5053310;28;20029;-87
2022/04/09 04:06:36;;;;;;;12.80;2.72;;;4.40;99.90;;;;;;5052924;28;20025;-86
2022/04/09 04:09:02;;;;;;;14.75;3.65;;;4.40;99.90;;;;;;5052497;28;20055;-88
2022/04/09 04:11:29;;;;;;;10.07;3.83;;;4.40;99.90;;;;;;5053079;28;20045;-87
2022/04/09 04:13:55;;;;;;;11.05;1.83;;;4.40;99.90;;;;;;5055335;28;20529;-86
2022/04/09 04:16:20;;;;;;;6.82;1.30;;;4.40;99.90;;;;;;5052801;28;20021;-86
2022/04/09 04:18:46;;;;;;;9.07;1.20;;;4.40;99.90;;;;;;5053144;28;20044;-86
2022/04/09 04:21:11;;;;;;;12.13;3.35;;;4.30;99.90;;;;;;5053214;28;20100;-86
2022/04/09 04:23:37;;;;;;;14.65;1.77;;;4.40;99.90;;;;;;5053020;28;20025;-87
2022/04/09 04:26:03;;;;;;;10.32;2.10;;;4.40;99.90;;;;;;5070190;28;20057;-87
2022/04/09 04:28:29;;;;;;;15.10;2.03;;;4.40;99.90;;;;;;5055598;28;20469;-87
2022/04/09 04:30:54;;;;;;;19.65;2.65;;;4.40;99.90;;;;;;5052970;28;20021;-86
2022/04/09 04:33:20;;;;;;;16.42;1.98;;;4.40;99.90;;;;;;5054134;28;20028;-86
2022/04/09 04:35:46;;;;;;;10.48;1.60;;;4.50;99.90;;;;;;5061966;28;20410;-86
2022/04/09 04:38:12;;;;;;;6.57;1.50;;;4.50;99.90;;;;;;5060828;28;20018;-86
2022/04/09 04:40:37;;;;;;;13.82;3.85;;;4.60;99.90;;;;;;5061610;28;20111;-85
2022/04/09 04:43:03;;;;;;;11.40;2.20;;;4.70;99.90;;;;;;5067326;28;20009;-86
2022/04/09 04:45:30;;;;;;;10.68;1.45;;;4.80;99.90;;;;;;5053884;28;20032;-85
2022/04/09 04:47:56;;;;;;;26.95;2.95;;;4.80;99.90;;;;;;5053098;28;20031;-86
2022/04/09 04:50:22;;;;;;;14.52;2.30;;;5.00;99.90;;;;;;5052033;28;20033;-86
2022/04/09 04:52:48;;;;;;;19.75;3.63;;;5.00;99.90;;;;;;5052761;28;20462;-86
2022/04/09 04:55:14;;;;;;;13.98;2.13;;;5.00;99.90;;;;;;5053016;28;20025;-86
2022/04/09 04:57:46;;;;;;;13.65;1.90;;;5.00;99.90;;;;;;5052952;28;20032;-86
2022/04/09 05:00:16;;;;;;;10.65;1.60;;;5.00;99.90;;;;;;5053489;28;20029;-86
2022/04/09 05:02:42;;;;;;;14.18;3.63;;;5.00;99.90;;;;;;5056005;28;20500;-85
2022/04/09 05:05:08;;;;;;;13.57;2.10;;;5.00;99.90;;;;;;5055790;28;20036;-86
2022/04/09 05:07:44;;;;;;;10.93;2.33;;;5.10;99.90;;;;;;5056668;28;20128;-86
2022/04/09 05:10:14;;;;;;;14.70;2.17;;;5.00;99.90;;;;;;5056792;28;20128;-86
2022/04/09 05:12:41;;;;;;;19.48;4.68;;;5.10;99.90;;;;;;5057165;28;20052;-86
2022/04/09 05:15:08;;;;;;;22.33;2.13;;;5.10;99.90;;;;;;5064782;28;20040;-88
2022/04/09 05:17:34;;;;;;;13.27;2.35;;;5.20;99.90;;;;;;5070089;28;20040;-87
2022/04/09 05:20:03;;;;;;;20.90;2.35;;;5.20;99.90;;;;;;5064429;28;20025;-86
2022/04/09 05:22:30;;;;;;;15.68;3.00;;;5.30;99.90;;;;;;5072014;28;20530;-87
2022/04/09 05:24:56;;;;;;;14.90;3.92;;;5.20;99.90;;;;;;5061987;28;20025;-88
2022/04/09 05:27:23;;;;;;;6.55;1.48;;;5.30;99.90;;;;;;5056439;28;20029;-86
2022/04/09 05:29:48;;;;;;;5.97;2.97;;;5.10;99.90;;;;;;5055171;28;20044;-79
2022/04/09 05:32:14;;;;;;;10.75;2.53;;;4.90;99.90;;;;;;5053706;28;20025;-76
2022/04/09 05:34:40;;;;;;;12.77;2.42;;;4.70;99.90;;;;;;5053654;28;20025;-74
2022/04/09 05:37:06;;;;;;;10.30;2.40;;;4.60;99.90;;;;;;5053614;28;20040;-76
2022/04/09 05:39:31;;;;;;;12.65;2.72;;;4.30;99.90;;;;;;5053337;28;20025;-76
2022/04/09 05:41:57;;;;;;;8.45;1.65;;;4.30;99.90;;;;;;5056969;28;20058;-76
2022/04/09 05:44:22;;;;;;;7.90;2.10;;;4.30;99.90;;;;;;5053593;28;20032;-77
2022/04/09 05:46:48;;;;;;;11.38;1.85;;;4.40;99.90;;;;;;5053096;28;20598;-76
2022/04/09 05:49:14;;;;;;;19.85;2.63;;;4.40;99.90;;;;;;5052727;28;20029;-76
2022/04/09 05:51:39;;;;;;;17.77;3.58;;;4.60;99.90;;;;;;5055708;28;20100;-76
2022/04/09 05:54:05;;;;;;;13.63;1.92;;;4.60;99.90;;;;;;5052716;28;20310;-77
2022/04/09 05:56:31;;;;;;;17.45;2.25;;;4.80;99.90;;;;;;5053570;28;20434;-76
2022/04/09 05:58:57;;;;;;;17.63;2.47;;;4.80;99.90;;;;;;5057023;28;20027;-77
2022/04/09 06:01:22;;;;;;;12.77;2.08;;;5.00;99.90;;;;;;5052320;28;20036;-77
2022/04/09 06:03:48;;;;;;;12.85;2.72;;;5.00;99.90;;;;;;5053157;28;20029;-76
2022/04/09 06:06:17;;;;;;;18.90;2.90;;;5.00;99.90;;;;;;5056754;28;20012;-77
2022/04/09 06:08:42;;;;;;;15.70;3.30;;;5.10;99.90;;;;;;5056189;28;20045;-78
2022/04/09 06:11:08;;;;;;;10.25;2.72;;;5.10;99.90;;;;;;5058026;28;20361;-78
2022/04/09 06:13:34;;;;;;;5.45;1.05;;;5.10;99.90;;;;;;5054792;28;20029;-76
2022/04/09 06:16:00;;;;;;;6.93;0.90;;;5.20;99.90;;;;;;5054690;28;20104;-77
2022/04/09 06:18:26;;;;;;;7.68;0.80;;;5.10;99.90;;;;;;5052269;28;20427;-77
2022/04/09 06:20:51;;;;;;;5.05;1.20;;;5.10;99.90;;;;;;5064638;28;20025;-76
2022/04/09 06:23:17;;;;;;;5.53;1.40;;;5.00;99.90;;;;;;5072664;28;20032;-78
2022/04/09 06:25:42;;;;;;;9.60;2.38;;;4.80;99.90;;;;;;5071392;28;20021;-77
2022/04/09 06:28:09;;;;;;;6.72;1.65;;;4.70;99.90;;;;;;5062768;28;20056;-77
2022/04/09 06:30:34;;;;;;;10.35;1.75;;;4.70;99.90;;;;;;5051859;28;20032;-79
2022/04/09 06:33:00;;;;;;;9.70;1.65;;;4.60;99.90;;;;;;5063744;28;20070;-79
2022/04/09 06:35:26;;;;;;;8.88;1.50;;;4.60;99.90;;;;;;5070821;28;20027;-79
2022/04/09 06:37:52;;;;;;;8.88;2.55;;;4.70;99.90;;;;;;5067304;28;20021;-81
2022/04/09 06:40:17;;;;;;;6.68;1.67;;;4.80;99.90;;;;;;5072450;28;20028;-80
2022/04/09 06:42:43;;;;;;;10.88;1.77;;;4.80;99.90;;;;;;5071614;28;20051;-80
2022/04/09 06:45:10;;;;;;;8.48;1.98;;;4.80;99.90;;;;;;5072051;28;20024;-80
2022/04/09 06:47:39;;;;;;;6.13;2.13;;;4.80;99.90;;;;;;5072361;28;20027;-80
2022/04/09 06:50:12;;;;;;;8.82;1.77;;;4.70;99.90;;;;;;5071457;28;20039;-80
2022/04/09 06:52:38;;;;;;;10.27;2.00;;;4.80;99.90;;;;;;5072153;28;20032;-79
2022/04/09 06:55:09;;;;;;;5.85;1.73;;;4.80;99.90;;;;;;5060672;28;20542;-78
2022/04/09 06:57:36;;;;;;;11.35;2.17;;;4.80;99.90;;;;;;5067230;28;20073;-78
2022/04/09 07:00:04;;;;;;;10.93;1.27;;;4.80;99.90;;;;;;5063911;28;20036;-80
2022/04/09 07:02:30;;;;;;;9.35;2.55;;;4.80;99.90;;;;;;5051634;28;20032;-80
2022/04/09 07:04:55;;;;;;;5.85;2.50;;;4.80;99.90;;;;;;5059285;28;20025;-80
2022/04/09 07:07:25;;;;;;;25.80;6.05;;;4.80;99.90;;;;;;5071555;28;20090;-80
2022/04/09 07:09:53;;;;;;;12.35;2.30;;;4.80;99.90;;;;;;5057033;28;20055;-83
2022/04/09 07:12:18;;;;;;;9.07;2.40;;;4.80;99.90;;;;;;5052480;28;20021;-84
2022/04/09 07:14:44;;;;;;;15.88;2.17;;;4.80;99.90;;;;;;5053929;28;20528;-83
2022/04/09 07:17:20;;;;;;;17.63;4.60;;;4.80;99.90;;;;;;5064838;28;20067;-86
2022/04/09 07:19:45;;;;;;;13.93;2.20;;;4.70;99.90;;;;;;5074597;28;20031;-82
2022/04/09 07:22:11;;;;;;;13.85;2.83;;;5.00;99.90;;;;;;5069929;28;20024;-80
2022/04/09 07:24:36;;;;;;;17.80;5.25;;;5.30;99.90;;;;;;5069400;28;20054;-81
2022/04/09 07:27:02;;;;;;;12.10;3.63;;;5.50;99.90;;;;;;5070963;28;20029;-79
2022/04/09 07:29:28;;;;;;;7.63;2.65;;;5.70;99.90;;;;;;5073810;28;20036;-78
2022/04/09 07:31:53;;;;;;;7.55;2.25;;;5.70;99.90;;;;;;5055829;28;20104;-80
2022/04/09 07:34:19;;;;;;;6.85;2.10;;;5.70;99.90;;;;;;5054230;28;20082;-80
2022/04/09 07:36:44;;;;;;;12.93;2.78;;;5.70;99.90;;;;;;5076792;28;20037;-84
2022/04/09 07:39:10;;;;;;;14.65;2.45;;;5.70;99.90;;;;;;5065416;28;20064;-84
2022/04/09 07:41:36;;;;;;;7.88;2.45;;;5.80;99.90;;;;;;5064597;28;20154;-76
2022/04/09 07:44:01;;;;;;;7.90;1.95;;;5.80;99.90;;;;;;5050852;28;20118;-76
2022/04/09 07:46:27;;;;;;;18.55;2.53;;;5.90;99.90;;;;;;5065318;28;20028;-76
2022/04/09 07:48:52;;;;;;;9.13;2.80;;;5.90;99.90;;;;;;5070923;28;20426;-75
2022/04/09 07:51:18;;;;;;;10.20;2.90;;;5.90;99.90;;;;;;5071114;28;20024;-76
2022/04/09 07:53:44;;;;;;;11.70;2.33;;;6.00;99.90;;;;;;5060958;28;20469;-78
2022/04/09 07:56:10;;;;;;;9.88;2.53;;;6.20;99.90;;;;;;5050954;28;20021;-77
2022/04/09 07:58:35;;;;;;;13.10;2.13;;;6.40;99.90;;;;;;5061620;28;20017;-76
2022/04/09 08:01:01;;;;;;;4.20;1.35;;;6.60;99.90;;;;;;5071565;28;20480;-75
2022/04/09 08:03:26;;;;;;;18.40;2.13;;;6.90;99.90;;;;;;5071948;28;20559;-78
2022/04/09 08:05:52;;;;;;;10.32;1.40;;;7.00;99.90;;;;;;5072597;28;20078;-77
2022/04/09 08:08:18;;;;;;;6.88;1.67;;;7.10;99.90;;;;;;5070823;28;20484;-77
2022/04/09 08:10:43;;;;;;;10.65;1.70;;;7.10;99.90;;;;;;5072041;28;20068;-77
2022/04/09 08:13:09;;;;;;;6.13;1.50;;;7.10;99.90;;;;;;5071945;28;20083;-77
2022/04/09 08:15:34;;;;;;;7.60;1.88;;;7.20;99.90;;;;;;5062428;28;20032;-76
2022/04/09 08:18:03;;;;;;;4.13;0.85;;;7.30;99.90;;;;;;5051160;28;20404;-77
2022/04/09 08:20:30;;;;;;;2.47;1.02;;;7.40;99.90;;;;;;5065842;28;20025;-77
2022/04/09 08:22:55;;;;;;;9.13;1.15;;;7.50;99.90;;;;;;5070560;28;20035;-77
2022/04/09 08:25:21;;;;;;;3.58;1.20;;;7.50;99.90;;;;;;5071811;28;20376;-77
2022/04/09 08:27:49;;;;;;;11.55;3.50;;;7.50;99.90;;;;;;5072044;28;20060;-77
2022/04/09 08:30:15;;;;;;;9.82;3.47;;;7.50;99.90;;;;;;5070832;28;20508;-78
2022/04/09 08:32:41;;;;;;;17.42;4.30;;;7.30;99.90;;;;;;5071977;28;20017;-79
2022/04/09 08:35:07;;;;;;;9.10;2.97;;;7.30;99.90;;;;;;5053288;28;20033;-80
2022/04/09 08:37:32;;;;;;;4.35;1.25;;;7.00;99.90;;;;;;5055750;28;20044;-78
2022/04/09 08:39:58;;;;;;;2.75;1.50;;;6.80;99.90;;;;;;5075806;28;20453;-78
2022/04/09 08:42:24;;;;;;;7.20;2.47;;;6.40;99.90;;;;;;5062548;28;20358;-76
2022/04/09 08:44:50;;;;;;;5.53;1.42;;;6.10;99.90;;;;;;5054729;28;20457;-77
2022/04/09 08:47:16;;;;;;;7.30;3.08;;;5.70;99.90;;;;;;5054881;28;20035;-77
2022/04/09 08:49:47;;;;;;;4.45;1.88;;;5.40;99.90;;;;;;5054807;28;20039;-79
2022/04/09 08:52:14;;;;;;;3.95;1.77;;;5.20;99.90;;;;;;5072217;28;20035;-74
2022/04/09 08:54:43;;;;;;;4.82;1.00;;;5.00;99.90;;;;;;5075647;28;20024;-75
2022/04/09 08:57:09;;;;;;;5.72;2.67;;;4.90;99.90;;;;;;5064555;28;20104;-76
2022/04/09 08:59:35;;;;;;;7.43;1.50;;;4.80;99.90;;;;;;5057286;28;20025;-74
2022/04/09 09:02:00;;;;;;;18.95;4.95;;;4.90;99.90;;;;;;5057405;28;20120;-76
2022/04/09 09:04:29;;;;;;;5.35;1.80;;;5.00;99.90;;;;;;5054634;28;20166;-83
2022/04/09 09:06:54;;;;;;;7.00;1.75;;;5.20;99.90;;;;;;5060720;28;20080;-80
2022/04/09 09:09:29;;;;;;;13.57;2.80;;;5.30;99.90;;;;;;5072235;28;20480;-78
2022/04/09 09:11:56;;;;;;;3.45;0.98;;;5.40;99.90;;;;;;5073472;28;20025;-79
2022/04/09 09:14:30;;;;;;;5.70;1.17;;;5.60;99.90;;;;;;5074318;28;20043;-78
2022/04/09 09:16:58;;;;;;;3.50;1.17;;;5.90;99.90;;;;;;5073974;28;20021;-78
2022/04/09 09:19:43;;;;;;;7.85;1.88;;;6.10;99.90;;;;;;5072630;28;20384;-78
2022/04/09 09:22:09;;;;;;;10.55;2.45;;;6.50;99.90;;;;;;5073378;28;20043;-78
2022/04/09 09:24:35;;;;;;;12.80;3.13;;;6.90;99.90;;;;;;5072738;28;20020;-78
2022/04/09 09:27:02;;;;;;;3.95;1.35;;;7.20;99.90;;;;;;5073479;28;20031;-78
2022/04/09 09:29:32;;;;;;;6.10;1.88;;;7.50;99.90;;;;;;5072805;28;20508;-77
2022/04/09 09:32:00;;;;;;;10.55;3.53;;;7.90;99.90;;;;;;5072907;28;20089;-77
2022/04/09 09:34:27;;;;;;;8.90;1.95;;;8.20;99.90;;;;;;5072877;28;20045;-77
2022/04/09 09:36:52;;;;;;;10.68;2.40;;;8.30;99.90;;;;;;5073386;28;20032;-79
2022/04/09 09:39:20;;;;;;;8.55;2.42;;;8.30;99.90;;;;;;5072058;28;20024;-78
2022/04/09 09:41:57;;;;;;;16.50;4.03;;;8.40;99.90;;;;;;5073369;28;20035;-79
2022/04/09 09:44:25;;;;;;;16.88;3.65;;;8.40;99.90;;;;;;5073171;28;20171;-80
2022/04/09 09:46:53;;;;;;;19.48;4.47;;;8.30;99.90;;;;;;5072576;28;20037;-80
2022/04/09 09:49:20;;;;;;;14.95;4.90;;;8.10;99.90;;;;;;5071474;28;20392;-80
2022/04/09 09:52:03;;;;;;;5.03;2.72;;;7.80;99.90;;;;;;5068059;28;20024;-79
2022/04/09 09:54:29;;;;;;;2.97;1.17;;;7.70;99.90;;;;;;5068782;28;20032;-79
2022/04/09 09:56:55;;;;;;;7.50;1.50;;;7.60;99.90;;;;;;5066436;28;20025;-80
2022/04/09 09:59:22;;;;;;;7.18;1.77;;;7.50;99.90;;;;;;5070431;28;20037;-79
2022/04/09 10:01:48;;;;;;;7.40;1.58;;;7.50;99.90;;;;;;5070326;28;20060;-79
2022/04/09 10:04:13;;;;;;;4.40;1.23;;;7.60;99.90;;;;;;5072423;28;20051;-79
2022/04/09 10:06:42;;;;;;;7.78;1.90;;;7.80;99.90;;;;;;5069933;28;20041;-79
2022/04/09 10:09:08;;;;;;;8.48;1.45;;;8.00;99.90;;;;;;5072339;28;20048;-79
2022/04/09 10:11:36;;;;;;;5.30;1.17;;;8.30;99.90;;;;;;5073215;28;20013;-79
2022/04/09 10:14:03;;;;;;;16.15;1.77;;;8.40;99.90;;;;;;5072038;28;20032;-79
2022/04/09 10:16:33;;;;;;;9.75;1.83;;;8.60;99.90;;;;;;5072662;28;20024;-81
2022/04/09 10:19:00;;;;;;;9.07;1.53;;;8.70;99.90;;;;;;5072805;28;20028;-79
2022/04/09 10:21:28;;;;;;;6.30;1.85;;;9.00;99.90;;;;;;5070996;28;20471;-80
2022/04/09 10:23:56;;;;;;;8.75;2.08;;;9.20;99.90;;;;;;5071736;28;20028;-80
2022/04/09 10:26:22;;;;;;;5.70;2.00;;;9.30;99.90;;;;;;5071584;28;20033;-80
2022/04/09 10:28:50;;;;;;;9.85;1.42;;;9.30;99.90;;;;;;5070974;28;20063;-79
2022/04/09 10:31:28;;;;;;;5.88;1.88;;;9.20;99.90;;;;;;5079483;28;20028;-80
2022/04/09 10:34:01;;;;;;;2.00;0.60;;;9.10;99.90;;;;;;5073684;28;20033;-80
2022/04/09 10:36:45;;;;;;;4.82;1.45;;;9.00;99.90;;;;;;5071898;28;20401;-82
2022/04/09 10:39:29;;;;;;;14.02;5.10;;;9.00;99.90;;;;;;5071962;28;20063;-80
2022/04/09 10:41:56;;;;;;;5.22;1.55;;;9.00;99.90;;;;;;5071654;28;20029;-80
2022/04/09 10:44:42;;;;;;;8.13;2.78;;;9.10;99.90;;;;;;5072813;28;20104;-80
2022/04/09 10:47:10;;;;;;;13.35;6.05;;;9.10;99.90;;;;;;5071991;28;20070;-79
2022/04/09 10:49:37;;;;;;;12.15;3.50;;;9.10;99.90;;;;;;5071647;28;20124;-81
2022/04/09 10:52:21;;;;;;;9.20;2.70;;;9.10;99.90;;;;;;5071863;28;20044;-79
2022/04/09 10:55:26;;;;;;;12.95;3.17;;;9.30;99.90;;;;;;5069539;28;20025;-77
2022/04/09 10:58:00;;;;;;;4.45;1.35;;;9.30;99.90;;;;;;5060389;28;20020;-77
2022/04/09 11:00:32;;;;;;;13.20;2.05;;;9.30;99.90;;;;;;5061059;28;20020;-79
2022/04/09 11:03:17;;;;;;;8.20;2.45;;;9.30;99.90;;;;;;5062784;28;20166;-79
2022/04/09 11:05:43;;;;;;;7.22;1.20;;;9.30;99.90;;;;;;5063433;28;20096;-79
2022/04/09 11:08:18;;;;;;;11.88;2.80;;;9.40;99.90;;;;;;5060114;28;20037;-78
2022/04/09 11:10:44;;;;;;;10.35;2.58;;;9.50;99.90;;;;;;5063352;28;20025;-78
2022/04/09 11:13:12;;;;;;;17.08;3.85;;;9.10;99.90;;;;;;5073991;28;20024;-78
2022/04/09 11:15:41;;;;;;;8.57;4.32;;;8.70;99.90;;;;;;5078230;28;20147;-77
2022/04/09 11:18:07;;;;;;;7.05;3.03;;;8.30;99.90;;;;;;5071127;28;20031;-78
2022/04/09 11:20:34;;;;;;;5.40;1.92;;;8.20;99.90;;;;;;5071369;28;20048;-79
2022/04/09 11:23:09;;;;;;;13.23;4.13;;;8.00;99.90;;;;;;5070943;28;20038;-78
2022/04/09 11:25:34;;;;;;;9.73;3.03;;;7.80;99.90;;;;;;5070342;28;20526;-78
2022/04/09 11:28:17;;;;;;;22.63;7.32;;;7.80;99.90;;;;;;5071300;28;20033;-80
2022/04/09 11:31:01;;;;;;;19.10;5.15;;;7.90;99.90;;;;;;5068934;28;20503;-79
2022/04/09 11:33:28;;;;;;;32.10;9.50;;;8.20;99.90;;;;;;5070754;28;20032;-79
2022/04/09 11:35:54;;;;;;;13.73;2.85;;;8.30;99.90;;;;;;5071341;28;20021;-78
2022/04/09 11:38:23;;;;;;;10.02;1.98;;;8.30;99.90;;;;;;5068449;28;20031;-78
2022/04/09 11:40:49;;;;;;;15.23;3.85;;;8.30;99.90;;;;;;5069657;28;20036;-80
2022/04/09 11:43:16;;;;;;;7.38;1.77;;;8.40;99.90;;;;;;5067185;28;20028;-79
2022/04/09 11:45:42;;;;;;;11.55;2.35;;;8.40;99.90;;;;;;5070014;28;20029;-79
2022/04/09 11:48:16;;;;;;;10.90;2.92;;;8.40;99.90;;;;;;5070591;28;20724;-78
2022/04/09 11:50:43;;;;;;;14.70;5.82;;;8.30;99.90;;;;;;5063008;28;20056;-79
2022/04/09 11:53:10;;;;;;;18.50;6.32;;;8.30;99.90;;;;;;5068817;28;20033;-79
2022/04/09 11:55:37;;;;;;;8.60;2.90;;;8.30;99.90;;;;;;5071051;28;20020;-78
2022/04/09 11:58:02;;;;;;;8.63;2.92;;;8.40;99.90;;;;;;5070466;28;20037;-79
2022/04/09 12:00:30;;;;;;;5.93;1.80;;;8.40;99.90;;;;;;5063624;28;20025;-79
2022/04/09 12:03:01;;;;;;;11.68;2.45;;;8.50;99.90;;;;;;5069963;28;20468;-77
2022/04/09 12:05:27;;;;;;;7.13;2.30;;;8.50;99.90;;;;;;5062125;28;20025;-77
2022/04/09 12:07:53;;;;;;;7.20;1.73;;;8.50;99.90;;;;;;5071324;28;20432;-77
2022/04/09 12:10:25;;;;;;;6.68;2.08;;;8.60;99.90;;;;;;5069605;28;20037;-76
2022/04/09 12:12:57;;;;;;;6.90;1.17;;;8.70;99.90;;;;;;5070258;28;20021;-77
2022/04/09 12:15:30;;;;;;;3.22;0.80;;;8.80;99.90;;;;;;5071680;28;20035;-76
2022/04/09 12:17:56;;;;;;;3.22;1.48;;;9.00;99.90;;;;;;5072298;28;20057;-77
2022/04/09 12:20:40;;;;;;;3.60;1.38;;;9.10;99.90;;;;;;5075035;28;20024;-76
2022/04/09 12:23:07;;;;;;;3.42;1.83;;;9.20;99.90;;;;;;5076556;28;20056;-78
2022/04/09 12:25:43;;;;;;;7.57;1.30;;;9.40;99.90;;;;;;5072239;28;20035;-77
2022/04/09 12:28:28;;;;;;;7.45;2.80;;;9.30;99.90;;;;;;5071359;28;20055;-76
2022/04/09 12:30:56;;;;;;;11.45;1.35;;;9.30;99.90;;;;;;5072603;28;20032;-76
2022/04/09 12:33:22;;;;;;;5.15;0.82;;;9.30;99.90;;;;;;5071973;28;20054;-74
2022/04/09 12:36:04;;;;;;;6.20;1.35;;;9.40;99.90;;;;;;5071489;28;20476;-77
2022/04/09 12:38:35;;;;;;;12.93;2.60;;;9.40;99.90;;;;;;5071834;28;20488;-77
2022/04/09 12:41:04;;;;;;;7.10;1.65;;;9.50;99.90;;;;;;5071934;28;20033;-76
2022/04/09 12:43:39;;;;;;;8.10;1.88;;;9.70;99.90;;;;;;5070818;28;20024;-76
2022/04/09 12:46:07;;;;;;;5.25;1.80;;;9.80;99.90;;;;;;5072018;28;20107;-76
2022/04/09 12:48:37;;;;;;;5.60;1.52;;;9.90;99.90;;;;;;5071007;28;20128;-75
2022/04/09 12:51:06;;;;;;;7.63;1.48;;;10.10;99.90;;;;;;5071679;28;20480;-76